Time;durP1;ratioP1;P1;durP2;ratioP2;P2;SDS_P1;SDS_P2;PMS_P1;PMS_P2;Temp;Humidity;BMP_temperature;BMP_pressure;BME280_temperature;BME280_humidity;BME280_pressure;Samples;Min_cycle;Max_cycle;Signal;HPM_P1;HPM_P2
2021/12/07 00:02:09;;;;;;;12.40;6.50;;;;;;;3.36;77.84;99283.19;5005048;28;20048;-79
2021/12/07 00:04:37;;;;;;;15.00;7.93;;;;;;;3.36;77.82;99269.19;5018984;28;20041;-79
2021/12/07 00:07:04;;;;;;;16.23;8.07;;;;;;;3.36;77.95;99275.31;4981828;28;20452;-79
2021/12/07 00:09:31;;;;;;;14.48;7.57;;;;;;;3.36;78.11;99266.56;5001316;28;20046;-79
2021/12/07 00:12:03;;;;;;;18.35;8.98;;;;;;;3.35;77.94;99272.78;5003147;28;20038;-79
2021/12/07 00:14:37;;;;;;;18.50;9.00;;;;;;;3.35;77.90;99276.25;5018555;28;20048;-79
2021/12/07 00:17:04;;;;;;;17.60;8.73;;;;;;;3.35;77.80;99275.41;5034809;28;20052;-79
2021/12/07 00:19:31;;;;;;;13.95;8.25;;;;;;;3.36;77.97;99271.81;5032952;28;20512;-79
2021/12/07 00:21:59;;;;;;;15.60;8.15;;;;;;;3.36;78.02;99267.44;5024308;28;20052;-79
2021/12/07 00:24:25;;;;;;;9.68;5.90;;;;;;;3.36;77.89;99266.56;5024005;28;20049;-79
2021/12/07 00:26:52;;;;;;;13.52;7.72;;;;;;;3.36;78.01;99266.56;5002165;28;20045;-80
2021/12/07 00:29:19;;;;;;;13.38;6.68;;;;;;;3.37;77.96;99260.41;5019831;28;20057;-79
2021/12/07 00:31:55;;;;;;;12.55;7.18;;;;;;;3.35;78.04;99263.13;5024522;28;20147;-80
2021/12/07 00:36:59;;;;;;;22.30;8.93;;;;;;;3.33;77.72;99266.78;4985230;28;20404;-80
2021/12/07 00:39:26;;;;;;;18.83;8.73;;;;;;;3.32;77.75;99260.72;5021847;28;20073;-80
2021/12/07 00:41:55;;;;;;;17.60;8.23;;;;;;;3.32;77.63;99270.38;5001294;28;20053;-79
2021/12/07 00:44:23;;;;;;;51.47;18.42;;;;;;;3.30;77.73;99267.84;5021634;28;20042;-79
2021/12/07 00:46:51;;;;;;;44.53;15.10;;;;;;;3.31;77.95;99260.81;4986856;28;20125;-79
2021/12/07 00:49:19;;;;;;;22.70;10.57;;;;;;;3.30;77.92;99259.13;5023443;28;20485;-79
2021/12/07 00:51:46;;;;;;;18.08;8.25;;;;;;;3.29;77.88;99260.94;5015630;28;20045;-79
2021/12/07 00:54:13;;;;;;;19.80;9.32;;;;;;;3.29;77.88;99254.84;4995635;28;20070;-80
2021/12/07 00:56:41;;;;;;;27.90;11.75;;;;;;;3.29;77.95;99257.47;5005929;28;20455;-80
2021/12/07 00:59:08;;;;;;;15.70;8.15;;;;;;;3.28;78.06;99253.16;5018559;28;20069;-79
2021/12/07 01:01:36;;;;;;;16.20;7.65;;;;;;;3.28;77.79;99256.59;5017802;28;20048;-79
2021/12/07 01:04:05;;;;;;;15.90;7.65;;;;;;;3.26;77.88;99256.72;5023067;28;20121;-80
2021/12/07 01:06:44;;;;;;;13.65;7.40;;;;;;;3.26;77.94;99250.66;5039970;28;20103;-80
2021/12/07 01:09:19;;;;;;;14.90;7.47;;;;;;;3.26;77.98;99242.78;5006664;28;20088;-80
2021/12/07 01:25:32;;;;;;;15.07;8.40;;;;;;;3.18;77.98;99245.91;5004184;28;20037;-79
2021/12/07 01:28:05;;;;;;;13.07;8.43;;;;;;;3.18;77.94;99231.94;5009530;28;20038;-80
2021/12/07 01:30:40;;;;;;;11.25;7.57;;;;;;;3.18;77.91;99237.19;5007891;28;20058;-79
2021/12/07 01:41:09;;;;;;;14.43;8.25;;;;;;;3.15;78.08;99250.50;4996362;28;20143;-79
2021/12/07 01:44:14;;;;;;;14.25;8.52;;;;;;;3.14;78.10;99238.34;5009143;28;20122;-79
2021/12/07 01:52:32;;;;;;;13.20;7.93;;;;;;;3.11;77.74;99242.00;4990995;28;20991;-79
2021/12/07 01:58:06;;;;;;;12.23;7.45;;;;;;;3.09;77.75;99256.19;5014876;28;21063;-78
2021/12/07 02:00:39;;;;;;;11.85;7.03;;;;;;;3.06;78.05;99254.59;4996532;28;20050;-79
2021/12/07 02:03:07;;;;;;;13.45;8.25;;;;;;;3.06;78.00;99251.97;5051745;28;20073;-79
2021/12/07 02:05:34;;;;;;;11.13;7.53;;;;;;;3.06;77.85;99249.34;5008419;28;21810;-78
2021/12/07 02:08:02;;;;;;;14.13;7.97;;;;;;;3.08;78.17;99257.97;5005131;28;20481;-79
2021/12/07 02:10:31;;;;;;;10.77;7.53;;;;;;;3.06;78.20;99254.59;5004696;28;20533;-79
2021/12/07 02:13:19;;;;;;;14.05;7.78;;;;;;;3.05;78.06;99247.66;4978875;28;20057;-79
2021/12/07 02:15:47;;;;;;;12.85;7.70;;;;;;;3.05;77.88;99255.53;5005940;28;20048;-79
2021/12/07 02:18:17;;;;;;;14.52;7.63;;;;;;;3.07;77.90;99253.66;5006512;28;20044;-79
2021/12/07 02:20:46;;;;;;;13.98;7.63;;;;;;;3.06;77.92;99256.38;4998050;28;20063;-79
2021/12/07 02:23:13;;;;;;;12.93;7.00;;;;;;;3.05;77.77;99255.53;5025259;28;20038;-79
2021/12/07 02:25:40;;;;;;;13.20;7.70;;;;;;;3.04;78.11;99253.84;5039387;28;20059;-79
2021/12/07 02:28:13;;;;;;;13.35;7.22;;;;;;;3.03;78.07;99253.03;5039541;28;20042;-79
2021/12/07 02:30:41;;;;;;;11.55;7.28;;;;;;;3.02;78.25;99259.19;4993757;28;20122;-79
2021/12/07 02:33:09;;;;;;;14.05;6.97;;;;;;;3.02;78.16;99256.56;4991772;28;20053;-79
2021/12/07 02:35:39;;;;;;;12.95;7.40;;;;;;;3.07;77.88;99266.75;5004151;28;20041;-79
2021/12/07 02:38:06;;;;;;;16.52;8.88;;;;;;;3.02;77.81;99260.97;5020974;28;20045;-79
2021/12/07 02:40:37;;;;;;;10.40;5.80;;;;;;;3.01;78.02;99259.31;5013047;28;20054;-79
2021/12/07 02:43:06;;;;;;;12.23;7.47;;;;;;;3.00;78.03;99258.47;5023159;28;20151;-79
2021/12/07 02:45:32;;;;;;;13.93;7.65;;;;;;;2.99;78.04;99259.41;5024690;28;20068;-79
2021/12/07 02:47:59;;;;;;;14.20;8.48;;;;;;;2.99;78.06;99259.41;5022199;28;20049;-79
2021/12/07 02:50:26;;;;;;;12.73;7.45;;;;;;;3.00;78.34;99260.22;5019802;28;20580;-79
2021/12/07 02:52:53;;;;;;;12.13;6.72;;;;;;;3.00;78.21;99262.84;5022559;28;20045;-79
2021/12/07 02:55:20;;;;;;;9.23;6.10;;;;;;;2.99;78.27;99256.78;5015996;28;20595;-79
2021/12/07 02:57:48;;;;;;;11.85;6.40;;;;;;;3.00;78.13;99252.38;5007883;28;20125;-79
2021/12/07 03:00:24;;;;;;;8.55;4.82;;;;;;;3.00;78.12;99261.09;5026743;28;20103;-79
2021/12/07 03:03:00;;;;;;;8.00;4.20;;;;;;;3.01;78.30;99240.94;5005948;28;20046;-79
2021/12/07 03:05:57;;;;;;;7.13;4.07;;;;;;;3.01;78.27;99241.78;5023180;28;20050;-79
2021/12/07 03:28:23;;;;;;;3.40;2.28;;;;;;;3.08;79.02;99244.84;4992873;28;20346;-79
2021/12/07 03:30:51;;;;;;;2.88;1.95;;;;;;;3.09;79.29;99240.44;5024919;28;20049;-79
2021/12/07 03:33:20;;;;;;;5.25;2.30;;;;;;;3.11;79.15;99244.63;5021350;28;20119;-80
2021/12/07 03:35:49;;;;;;;3.35;1.80;;;;;;;3.12;79.11;99253.34;5022641;28;20045;-80
2021/12/07 03:38:16;;;;;;;4.72;2.70;;;;;;;3.12;79.28;99240.22;5024886;28;20041;-80
2021/12/07 03:40:44;;;;;;;5.95;3.40;;;;;;;3.10;79.27;99253.44;5005093;28;20509;-80
2021/12/07 03:43:12;;;;;;;5.45;3.00;;;;;;;3.13;79.37;99253.25;5002952;28;20050;-79
2021/12/07 03:45:39;;;;;;;3.67;2.17;;;;;;;3.14;79.23;99264.59;5018771;28;20077;-80
2021/12/07 03:48:08;;;;;;;4.53;2.78;;;;;;;3.13;79.44;99271.63;5000465;28;20042;-80
2021/12/07 03:50:36;;;;;;;4.20;2.35;;;;;;;3.14;79.61;99264.59;5016443;28;20046;-80
2021/12/07 03:53:04;;;;;;;2.55;1.85;;;;;;;3.14;79.32;99280.31;5023509;28;20040;-80
2021/12/07 03:55:31;;;;;;;4.10;2.47;;;;;;;3.14;79.65;99296.91;5029240;28;20053;-79
2021/12/07 03:57:58;;;;;;;5.40;2.40;;;;;;;3.14;79.67;99296.91;5009431;28;20041;-80
2021/12/07 04:00:28;;;;;;;3.53;2.40;;;;;;;3.15;79.65;99300.34;5021904;28;20056;-80
2021/12/07 04:02:58;;;;;;;4.47;3.03;;;;;;;3.15;79.63;99305.59;5026286;28;20052;-80
2021/12/07 04:05:26;;;;;;;4.90;2.45;;;;;;;3.13;79.61;99308.34;5023502;28;20048;-79
2021/12/07 04:07:53;;;;;;;8.02;3.47;;;;;;;3.14;79.66;99302.13;5016186;28;20053;-79
2021/12/07 04:10:25;;;;;;;10.68;5.13;;;;;;;3.14;79.73;99307.38;4992761;28;20045;-80
2021/12/07 04:12:52;;;;;;;9.15;4.45;;;;;;;3.15;79.92;99309.06;4983637;28;20050;-79
2021/12/07 04:15:20;;;;;;;9.93;5.93;;;;;;;3.17;80.27;99308.97;5032157;28;20046;-80
2021/12/07 04:17:47;;;;;;;6.55;4.00;;;;;;;3.17;79.94;99316.84;5012296;28;20121;-80
2021/12/07 04:20:18;;;;;;;6.85;3.42;;;;;;;3.16;79.93;99308.13;5019823;28;20404;-79
2021/12/07 04:22:45;;;;;;;5.40;2.70;;;;;;;3.18;79.93;99306.25;5036940;28;20103;-79
2021/12/07 04:25:14;;;;;;;4.22;2.60;;;;;;;3.20;79.93;99312.22;5024172;28;20105;-80
2021/12/07 04:27:45;;;;;;;3.10;2.38;;;;;;;3.20;79.85;99312.22;5002128;28;20038;-79
2021/12/07 04:30:15;;;;;;;3.85;2.45;;;;;;;3.19;79.92;99305.31;5015053;28;20056;-79
2021/12/07 04:32:44;;;;;;;3.97;2.85;;;;;;;3.19;79.85;99307.94;5027000;28;20392;-79
2021/12/07 04:35:12;;;;;;;5.30;2.25;;;;;;;3.18;80.18;99318.50;5035355;28;20053;-80
2021/12/07 04:37:40;;;;;;;6.78;3.50;;;;;;;3.19;80.16;99317.59;5017683;28;20518;-80
2021/12/07 04:40:10;;;;;;;4.88;3.10;;;;;;;3.21;80.02;99323.56;5038394;28;20053;-79
2021/12/07 04:42:37;;;;;;;6.95;2.47;;;;;;;3.17;80.26;99322.09;5020605;28;20767;-79
2021/12/07 04:45:07;;;;;;;5.00;2.60;;;;;;;3.17;80.24;99322.91;5018455;28;20516;-80
2021/12/07 04:57:36;;;;;;;3.95;2.60;;;;;;;3.17;80.21;99328.16;4948091;28;20045;-80
2021/12/07 04:58:52;;;;;;;6.78;3.15;;;;;;;3.15;80.38;99344.94;5009330;28;20065;-80
2021/12/07 05:01:19;;;;;;;4.40;2.30;;;;;;;3.17;80.23;99338.66;5030672;28;20041;-79
2021/12/07 05:03:48;;;;;;;4.55;2.20;;;;;;;3.14;80.21;99353.78;5007738;28;20055;-80
2021/12/07 05:06:16;;;;;;;4.35;2.40;;;;;;;3.14;80.32;99357.22;5058422;28;20053;-80
2021/12/07 05:08:46;;;;;;;5.60;2.72;;;;;;;3.13;80.35;99366.06;5025501;28;20076;-80
2021/12/07 05:11:30;;;;;;;4.13;2.63;;;;;;;3.13;80.52;99373.06;5026104;28;20056;-80
2021/12/07 05:24:26;;;;;;;5.35;2.80;;;;;;;3.13;80.55;99389.66;5023068;28;20523;-80
2021/12/07 05:37:54;;;;;;;4.78;1.90;;;;;;;3.14;80.68;99396.59;5014753;28;20112;-80
2021/12/07 05:40:35;;;;;;;4.90;1.98;;;;;;;3.13;80.65;99400.16;5004660;28;20042;-80
2021/12/07 05:43:03;;;;;;;2.75;1.83;;;;;;;3.14;80.54;99407.06;5004443;28;20121;-80
2021/12/07 05:45:32;;;;;;;4.88;1.80;;;;;;;3.15;80.42;99414.00;5023050;28;20053;-80
2021/12/07 05:48:00;;;;;;;8.68;3.00;;;;;;;3.15;80.76;99406.13;5041860;28;20057;-80
2021/12/07 05:50:30;;;;;;;3.95;1.92;;;;;;;3.16;80.35;99410.44;5019479;28;20496;-80
2021/12/07 05:53:02;;;;;;;4.75;2.08;;;;;;;3.12;80.74;99414.19;5023916;28;20456;-79
2021/12/07 05:55:29;;;;;;;3.92;1.83;;;;;;;3.13;80.62;99423.78;5027024;28;20477;-80
2021/12/07 05:57:56;;;;;;;5.53;2.03;;;;;;;3.16;80.55;99412.25;5020292;28;20049;-81
2021/12/07 06:00:29;;;;;;;6.05;2.22;;;;;;;3.12;80.65;99416.81;5041624;28;20045;-80
2021/12/07 06:03:02;;;;;;;7.43;1.98;;;;;;;3.13;80.62;99426.41;4977313;28;20046;-80
2021/12/07 06:05:29;;;;;;;5.90;2.35;;;;;;;3.16;80.56;99423.56;4956116;28;20042;-80
2021/12/07 06:07:56;;;;;;;5.38;2.83;;;;;;;3.15;80.54;99421.03;4981569;28;20562;-80
2021/12/07 06:10:23;;;;;;;4.47;2.13;;;;;;;3.15;80.75;99434.97;4983934;28;20049;-80
2021/12/07 06:12:53;;;;;;;5.90;1.65;;;;;;;3.14;80.52;99438.56;4985932;28;20490;-80
2021/12/07 06:15:22;;;;;;;2.40;1.50;;;;;;;3.15;80.63;99434.16;4983460;28;20436;-80
2021/12/07 06:17:50;;;;;;;4.88;1.73;;;;;;;3.13;80.67;99443.91;4984127;28;20077;-79
2021/12/07 06:20:18;;;;;;;4.57;1.63;;;;;;;3.13;80.44;99450.00;4966984;28;20045;-79
2021/12/07 06:23:05;;;;;;;7.20;2.25;;;;;;;3.11;80.32;99449.25;4967947;28;20841;-80
2021/12/07 06:25:32;;;;;;;4.20;1.63;;;;;;;3.11;80.53;99448.41;4966867;28;20048;-80
2021/12/07 06:28:04;;;;;;;7.85;2.17;;;;;;;3.07;80.37;99446.91;4985756;28;20660;-80
2021/12/07 06:30:30;;;;;;;4.07;2.00;;;;;;;3.08;80.49;99454.72;4980920;28;20056;-78
2021/12/07 06:32:57;;;;;;;4.32;2.40;;;;;;;3.08;80.47;99457.31;5003983;28;20046;-79
2021/12/07 06:35:24;;;;;;;4.25;2.20;;;;;;;3.08;80.61;99454.72;5030429;28;20048;-79
2021/12/07 06:37:51;;;;;;;7.88;2.58;;;;;;;3.09;80.64;99466.03;5010514;28;20045;-80
2021/12/07 06:40:22;;;;;;;6.80;3.05;;;;;;;3.08;80.33;99464.31;5018210;28;20503;-78
2021/12/07 06:42:49;;;;;;;7.85;3.45;;;;;;;3.07;80.37;99468.75;5002411;28;20540;-80
2021/12/07 06:45:17;;;;;;;7.95;3.25;;;;;;;3.07;80.26;99466.13;4986572;28;20050;-79
2021/12/07 06:47:43;;;;;;;17.77;6.05;;;;;;;3.07;80.60;99474.00;5010158;28;20057;-79
2021/12/07 06:50:11;;;;;;;36.50;11.18;;;;;;;3.08;80.61;99477.44;5009220;28;20048;-79
2021/12/07 06:52:38;;;;;;;14.63;5.43;;;;;;;3.10;80.82;99481.66;5026136;28;20608;-79
2021/12/07 06:55:06;;;;;;;17.55;7.03;;;;;;;3.10;80.77;99480.81;5018590;28;20456;-79
2021/12/07 06:57:33;;;;;;;18.25;6.50;;;;;;;3.10;80.75;99494.78;5023352;28;20052;-79
2021/12/07 07:00:01;;;;;;;12.75;3.72;;;;;;;3.10;80.88;99494.78;5019032;28;20053;-79
2021/12/07 07:02:27;;;;;;;9.68;3.50;;;;;;;3.11;80.92;99495.63;5020001;28;20138;-79
2021/12/07 07:04:59;;;;;;;4.90;3.08;;;;;;;3.08;80.79;99507.16;5011560;28;20548;-79
2021/12/07 07:07:26;;;;;;;11.43;3.13;;;;;;;3.09;81.07;99513.25;5022563;28;20049;-79
2021/12/07 07:09:52;;;;;;;8.07;3.00;;;;;;;3.10;80.84;99528.03;5037989;28;20057;-80
2021/12/07 07:12:19;;;;;;;8.45;2.95;;;;;;;3.07;80.82;99534.31;5027525;28;20034;-79
2021/12/07 07:14:47;;;;;;;7.40;3.33;;;;;;;3.09;81.01;99529.00;5026093;28;20056;-80
2021/12/07 07:17:13;;;;;;;8.60;3.10;;;;;;;3.08;81.08;99530.78;5007830;28;20045;-80
2021/12/07 07:19:44;;;;;;;7.78;3.45;;;;;;;3.07;80.82;99536.09;5021306;28;20041;-79
2021/12/07 07:22:11;;;;;;;6.15;3.15;;;;;;;3.09;80.99;99544.72;5022406;28;20045;-79
2021/12/07 07:24:39;;;;;;;8.05;2.72;;;;;;;3.07;81.05;99546.59;5026176;28;20125;-79
2021/12/07 07:27:06;;;;;;;6.45;2.80;;;;;;;3.07;80.90;99543.97;5028908;28;20670;-79
2021/12/07 07:29:33;;;;;;;7.07;2.67;;;;;;;3.08;80.81;99550.91;5018274;28;20129;-80
2021/12/07 07:32:00;;;;;;;9.48;3.10;;;;;;;3.08;81.01;99543.03;4999828;28;20077;-79
2021/12/07 07:34:27;;;;;;;6.88;2.50;;;;;;;3.09;80.92;99560.47;5019584;28;20053;-79
2021/12/07 07:36:54;;;;;;;6.63;2.83;;;;;;;3.06;81.06;99555.41;5021158;28;20052;-80
2021/12/07 07:39:21;;;;;;;7.25;2.35;;;;;;;3.08;81.19;99556.16;5031300;28;20069;-79
2021/12/07 07:41:48;;;;;;;5.22;2.00;;;;;;;3.07;81.46;99557.09;5019364;28;20067;-79
2021/12/07 07:44:15;;;;;;;8.85;2.50;;;;;;;3.09;81.32;99556.06;5030650;28;20095;-79
2021/12/07 07:46:45;;;;;;;8.68;2.20;;;;;;;3.10;81.29;99562.16;5003131;28;20054;-79
2021/12/07 07:49:12;;;;;;;4.18;2.30;;;;;;;3.09;81.11;99563.09;5008995;28;20053;-79
2021/12/07 07:51:39;;;;;;;4.75;2.30;;;;;;;3.10;81.42;99562.97;5014588;28;20051;-79
2021/12/07 07:54:06;;;;;;;3.92;2.20;;;;;;;3.10;81.42;99560.34;5004875;28;20048;-79
2021/12/07 07:56:33;;;;;;;7.38;2.45;;;;;;;3.11;81.39;99564.69;5022199;28;20045;-78
2021/12/07 07:59:00;;;;;;;8.15;1.95;;;;;;;3.11;81.36;99575.19;5022521;28;20044;-79
2021/12/07 08:01:30;;;;;;;8.50;2.60;;;;;;;3.11;81.34;99571.72;5004627;28;20073;-79
2021/12/07 08:04:00;;;;;;;5.05;2.33;;;;;;;3.10;81.18;99589.22;5021769;28;20514;-79
2021/12/07 08:06:27;;;;;;;4.90;2.63;;;;;;;3.09;81.60;99586.69;5035946;28;20069;-79
2021/12/07 08:08:53;;;;;;;11.50;3.53;;;;;;;3.10;81.67;99597.09;5026624;28;20485;-79
2021/12/07 08:11:20;;;;;;;11.88;2.97;;;;;;;3.10;81.40;99594.47;5012561;28;20045;-79
2021/12/07 08:13:54;;;;;;;6.37;2.93;;;;;;;3.11;81.44;99597.94;5001758;28;20061;-80
2021/12/07 08:16:22;;;;;;;7.80;2.45;;;;;;;3.08;81.82;99591.13;4994374;28;20440;-79
2021/12/07 08:18:50;;;;;;;9.57;3.22;;;;;;;3.11;81.85;99597.94;5025335;28;20041;-79
2021/12/07 08:21:17;;;;;;;9.77;2.97;;;;;;;3.12;81.87;99607.50;5019701;28;20374;-79
2021/12/07 08:23:45;;;;;;;8.82;3.92;;;;;;;3.12;81.76;99613.56;5021137;28;20373;-80
2021/12/07 08:26:15;;;;;;;7.15;3.33;;;;;;;3.11;81.86;99613.69;5000129;28;20054;-79
2021/12/07 08:28:48;;;;;;;11.93;4.00;;;;;;;3.14;81.81;99613.50;5014385;28;20152;-79
2021/12/07 08:31:15;;;;;;;8.20;3.38;;;;;;;3.14;82.10;99614.34;5023722;28;20053;-79
2021/12/07 08:33:42;;;;;;;8.57;3.17;;;;;;;3.18;82.06;99614.97;5026965;28;20124;-79
2021/12/07 08:36:08;;;;;;;7.22;3.60;;;;;;;3.14;82.24;99619.59;5020286;28;20128;-79
2021/12/07 08:38:36;;;;;;;10.40;3.35;;;;;;;3.18;82.02;99612.34;5014914;28;20057;-79
2021/12/07 08:41:03;;;;;;;6.68;3.30;;;;;;;3.17;82.26;99621.19;5023921;28;20049;-79
2021/12/07 08:43:33;;;;;;;9.23;3.05;;;;;;;3.18;81.97;99623.72;4996045;28;20046;-79
2021/12/07 08:46:01;;;;;;;6.28;3.05;;;;;;;3.20;82.07;99618.34;5039480;28;20041;-79
2021/12/07 08:48:28;;;;;;;6.85;3.45;;;;;;;3.20;82.06;99621.81;5027707;28;20087;-80
2021/12/07 08:50:57;;;;;;;10.93;3.13;;;;;;;3.22;81.99;99630.44;5016630;28;20045;-79
2021/12/07 08:53:24;;;;;;;6.47;3.00;;;;;;;3.24;81.76;99630.38;5029136;28;20053;-79
2021/12/07 09:01:24;;;;;;;73.13;8.18;;;;;;;3.23;82.06;99610.28;5009670;28;20045;-79
2021/12/07 09:03:54;;;;;;;132.30;17.35;;;;;;;3.23;82.00;99612.91;5012964;28;20053;-79
2021/12/07 09:06:20;;;;;;;69.82;9.98;;;;;;;3.24;82.11;99618.06;5041319;28;20051;-80
2021/12/07 09:08:53;;;;;;;108.43;13.90;;;;;;;3.25;81.92;99618.91;5004661;28;20042;-80
2021/12/07 09:11:21;;;;;;;205.10;20.98;;;;;;;3.28;82.14;99631.84;5000468;28;20041;-79
2021/12/07 09:13:48;;;;;;;13.05;2.97;;;;;;;3.29;82.12;99638.78;5005751;28;20042;-80
2021/12/07 09:16:18;;;;;;;10.63;3.90;;;;;;;3.29;82.06;99635.34;5043781;28;20061;-79
2021/12/07 09:18:45;;;;;;;9.93;3.20;;;;;;;3.29;82.42;99645.84;5009246;28;20077;-79
2021/12/07 09:21:12;;;;;;;8.65;4.07;;;;;;;3.29;82.26;99657.16;5008114;28;20067;-79
2021/12/07 09:23:39;;;;;;;13.05;3.22;;;;;;;3.29;82.37;99651.09;5040942;28;20049;-80
2021/12/07 09:26:06;;;;;;;14.52;3.60;;;;;;;3.30;82.07;99642.25;5025430;28;20125;-79
2021/12/07 09:28:35;;;;;;;13.13;2.90;;;;;;;3.33;82.10;99652.56;5029270;28;20114;-79
2021/12/07 09:31:04;;;;;;;11.27;3.40;;;;;;;3.33;82.24;99653.41;5026733;28;20056;-80
2021/12/07 09:33:31;;;;;;;5.82;3.03;;;;;;;3.34;82.44;99649.00;5040453;28;20140;-79
2021/12/07 09:35:59;;;;;;;9.30;2.90;;;;;;;3.31;82.37;99655.28;5025163;28;20056;-79
2021/12/07 09:38:26;;;;;;;10.70;2.90;;;;;;;3.30;82.76;99647.50;5025665;28;20046;-79
2021/12/07 09:40:53;;;;;;;10.60;3.03;;;;;;;3.36;82.36;99653.22;5023605;28;20511;-79
2021/12/07 09:43:20;;;;;;;10.73;2.67;;;;;;;3.35;82.42;99658.56;5027754;28;20037;-79
2021/12/07 09:45:48;;;;;;;17.20;3.67;;;;;;;3.35;82.60;99664.66;5014214;28;20037;-79
2021/12/07 09:48:15;;;;;;;10.57;3.08;;;;;;;3.34;82.71;99657.72;5025290;28;20386;-80
2021/12/07 09:50:45;;;;;;;6.65;2.65;;;;;;;3.39;82.29;99670.56;5022469;28;20064;-79
2021/12/07 09:53:14;;;;;;;7.97;2.88;;;;;;;3.36;82.50;99674.22;5025537;28;20045;-79
2021/12/07 09:55:42;;;;;;;10.75;3.35;;;;;;;3.40;82.51;99667.00;5025131;28;20041;-79
2021/12/07 09:58:09;;;;;;;10.63;3.45;;;;;;;3.38;82.83;99659.19;5008205;28;20059;-78
2021/12/07 10:00:36;;;;;;;11.13;2.30;;;;;;;3.39;82.47;99660.91;5025826;28;20070;-79
2021/12/07 10:03:03;;;;;;;11.40;2.97;;;;;;;3.41;82.52;99656.41;5025743;28;20489;-79
2021/12/07 10:05:34;;;;;;;9.50;3.28;;;;;;;3.42;82.50;99667.75;5025200;28;20050;-78
2021/12/07 10:08:03;;;;;;;11.88;3.85;;;;;;;3.42;82.64;99662.50;5039909;28;20041;-78
2021/12/07 10:10:54;;;;;;;19.65;3.28;;;;;;;3.41;82.62;99663.41;5026004;28;20115;-79
2021/12/07 10:13:23;;;;;;;9.10;2.80;;;;;;;3.41;82.81;99660.78;5016504;28;20052;-79
2021/12/07 10:15:51;;;;;;;13.23;3.28;;;;;;;3.42;82.95;99667.75;5023772;28;20063;-79
2021/12/07 10:18:20;;;;;;;9.57;3.50;;;;;;;3.43;83.11;99661.56;5020148;28;20125;-79
2021/12/07 10:21:25;;;;;;;10.68;2.60;;;;;;;3.40;82.87;99674.88;4991756;28;20475;-79
2021/12/07 10:24:02;;;;;;;10.88;3.17;;;;;;;3.43;82.91;99672.06;5018960;28;20444;-78
2021/12/07 10:26:40;;;;;;;9.85;3.78;;;;;;;3.42;82.66;99663.34;5024415;28;20056;-79
2021/12/07 10:29:10;;;;;;;11.52;2.63;;;;;;;3.45;83.03;99663.16;5022155;28;20040;-79
2021/12/07 10:31:42;;;;;;;7.35;2.53;;;;;;;3.45;82.85;99651.81;5027202;28;20045;-79
2021/12/07 10:34:21;;;;;;;12.52;3.20;;;;;;;3.42;82.59;99652.84;5025353;28;20052;-80
2021/12/07 10:36:52;;;;;;;7.40;2.70;;;;;;;3.50;82.88;99655.00;5017930;28;20041;-79
2021/12/07 10:39:28;;;;;;;15.85;4.35;;;;;;;3.43;82.75;99658.94;5005148;28;20045;-79
2021/12/07 10:42:01;;;;;;;16.02;4.93;;;;;;;3.49;82.79;99661.19;5009273;28;20052;-79
2021/12/07 10:44:48;;;;;;;10.00;3.10;;;;;;;3.52;82.78;99653.13;5017940;28;20049;-79
2021/12/07 10:47:16;;;;;;;9.45;2.85;;;;;;;3.54;82.75;99650.41;5022220;28;20172;-78
2021/12/07 10:49:50;;;;;;;12.45;2.90;;;;;;;3.54;83.12;99646.00;5028635;28;20045;-79
2021/12/07 10:52:29;;;;;;;7.00;2.40;;;;;;;3.54;82.90;99640.75;5044813;28;20041;-79
2021/12/07 10:55:09;;;;;;;10.77;2.53;;;;;;;3.54;83.02;99632.03;5034748;28;20393;-78
2021/12/07 10:58:12;;;;;;;6.80;2.65;;;;;;;3.54;83.12;99629.41;5039571;28;20053;-78
2021/12/07 11:00:42;;;;;;;19.17;3.15;;;;;;;3.65;83.13;99625.16;5029286;28;20059;-79
2021/12/07 11:03:19;;;;;;;11.73;3.05;;;;;;;3.68;83.16;99614.44;5003676;28;20049;-79
2021/12/07 11:05:54;;;;;;;13.00;2.95;;;;;;;3.80;82.79;99610.19;5005562;28;20573;-80
2021/12/07 11:08:26;;;;;;;8.73;2.30;;;;;;;3.86;82.68;99606.34;5016786;28;20410;-79
2021/12/07 11:10:54;;;;;;;9.18;2.72;;;;;;;3.83;82.47;99606.53;5022811;28;20128;-79
2021/12/07 11:13:33;;;;;;;6.78;1.80;;;;;;;3.85;82.21;99608.13;5026489;28;20489;-79
2021/12/07 11:16:06;;;;;;;10.57;2.20;;;;;;;3.91;82.00;99609.50;5023415;28;20099;-79
2021/12/07 11:18:36;;;;;;;5.63;1.65;;;;;;;3.96;82.17;99604.78;5026509;28;20467;-79
2021/12/07 11:21:07;;;;;;;10.00;1.73;;;;;;;3.95;81.84;99595.25;5018013;28;20044;-79
2021/12/07 11:23:36;;;;;;;14.93;2.42;;;;;;;4.17;80.89;99586.78;5039322;28;20497;-79
2021/12/07 11:31:36;;;;;;;11.13;2.33;;;;;;;3.96;81.60;99572.44;4987770;28;20046;-79
2021/12/07 11:34:05;;;;;;;12.13;2.85;;;;;;;4.03;81.28;99557.97;5037339;28;20120;-79
2021/12/07 11:36:50;;;;;;;7.38;1.98;;;;;;;3.98;81.36;99565.31;5022008;28;20133;-79
2021/12/07 11:39:36;;;;;;;10.27;1.48;;;;;;;4.02;81.22;99561.50;5019563;28;20042;-79
2021/12/07 11:42:06;;;;;;;6.63;1.98;;;;;;;4.06;81.70;99563.84;5047646;28;20049;-79
2021/12/07 11:44:38;;;;;;;8.20;2.08;;;;;;;4.09;81.06;99565.44;5021820;28;20053;-78
2021/12/07 11:47:05;;;;;;;5.80;1.80;;;;;;;4.06;81.14;99560.38;5022269;28;20037;-79
2021/12/07 11:49:33;;;;;;;10.00;1.80;;;;;;;4.08;80.98;99556.72;5028645;28;20077;-79
2021/12/07 11:52:03;;;;;;;12.93;2.53;;;;;;;4.08;80.73;99548.81;5038225;28;20488;-79
2021/12/07 11:54:37;;;;;;;8.23;1.73;;;;;;;4.04;80.28;99557.84;5019596;28;20049;-79
2021/12/07 11:57:06;;;;;;;3.92;1.40;;;;;;;4.06;80.72;99548.09;5031202;28;20068;-78
2021/12/07 11:59:34;;;;;;;5.65;1.42;;;;;;;4.05;80.54;99562.19;4983204;28;20410;-79
2021/12/07 12:02:00;;;;;;;9.20;2.83;;;;;;;4.06;80.34;99560.38;4992714;28;20485;-79
2021/12/07 12:04:27;;;;;;;9.95;2.35;;;;;;;4.04;80.39;99559.63;5001796;28;20050;-79
2021/12/07 12:06:56;;;;;;;11.52;2.75;;;;;;;4.04;80.25;99560.47;5017364;28;20041;-79
2021/12/07 12:09:25;;;;;;;5.57;1.90;;;;;;;4.05;80.20;99559.53;5003930;28;20486;-80
2021/12/07 12:12:20;;;;;;;6.18;1.52;;;;;;;3.96;79.93;99552.25;5017687;28;20046;-80
2021/12/07 12:15:03;;;;;;;5.40;1.83;;;;;;;3.99;78.74;99552.06;5021938;28;20049;-79
2021/12/07 12:18:02;;;;;;;4.93;1.45;;;;;;;4.02;76.98;99548.38;5017000;28;20045;-79
2021/12/07 12:20:56;;;;;;;8.45;1.85;;;;;;;4.07;78.84;99547.16;5001009;28;20508;-79
2021/12/07 12:23:37;;;;;;;16.80;4.38;;;;;;;4.08;78.91;99527.81;5007759;28;20033;-79
2021/12/07 12:26:07;;;;;;;7.13;2.53;;;;;;;4.14;79.26;99529.19;5054253;28;20051;-79
2021/12/07 12:28:47;;;;;;;6.80;2.38;;;;;;;4.11;79.13;99519.72;5022848;28;20045;-80
2021/12/07 12:31:14;;;;;;;9.55;3.38;;;;;;;4.14;79.43;99516.03;5024091;28;20104;-79
2021/12/07 12:33:50;;;;;;;9.02;2.88;;;;;;;4.12;79.36;99518.78;5024507;28;20095;-79
2021/12/07 12:36:19;;;;;;;8.63;2.42;;;;;;;4.15;79.21;99515.13;5022620;28;20045;-79
2021/12/07 12:38:56;;;;;;;10.68;2.97;;;;;;;4.10;78.96;99519.84;5015879;28;20470;-79
2021/12/07 12:41:23;;;;;;;11.85;3.47;;;;;;;4.16;79.34;99508.91;5017087;28;20049;-79
2021/12/07 12:43:54;;;;;;;7.55;2.25;;;;;;;4.16;79.22;99508.06;5005641;28;20049;-80
2021/12/07 12:46:26;;;;;;;10.05;2.17;;;;;;;4.16;78.98;99508.06;5020593;28;20048;-78
2021/12/07 12:48:56;;;;;;;13.25;2.15;;;;;;;4.18;79.29;99503.56;5020967;28;20069;-79
2021/12/07 12:51:26;;;;;;;9.82;2.55;;;;;;;4.17;79.08;99502.69;5026406;28;20064;-79
2021/12/07 12:53:54;;;;;;;4.63;1.55;;;;;;;4.18;79.34;99500.94;5022579;28;20401;-79
2021/12/07 12:56:26;;;;;;;4.80;1.55;;;;;;;4.21;78.86;99500.72;5014878;28;20045;-80
2021/12/07 12:58:55;;;;;;;4.03;1.85;;;;;;;4.23;79.10;99501.47;5022156;28;20048;-78
2021/12/07 13:01:25;;;;;;;4.65;1.83;;;;;;;4.23;78.91;99494.41;5021022;28;20045;-79
2021/12/07 13:04:01;;;;;;;8.95;1.48;;;;;;;4.21;78.52;99492.84;5006390;28;20073;-79
2021/12/07 13:06:34;;;;;;;8.20;1.55;;;;;;;4.18;78.64;99491.25;5018743;28;20416;-79
2021/12/07 13:09:19;;;;;;;9.75;1.75;;;;;;;4.21;78.74;99492.84;5002439;28;20042;-79
2021/12/07 13:11:58;;;;;;;4.47;1.55;;;;;;;4.19;78.87;99492.09;5003749;28;20046;-79
2021/12/07 13:14:25;;;;;;;9.02;1.98;;;;;;;4.23;79.01;99483.91;5001672;28;20057;-79
2021/12/07 13:16:59;;;;;;;10.32;1.65;;;;;;;4.24;78.98;99487.38;5021610;28;20124;-80
2021/12/07 13:19:28;;;;;;;6.20;1.80;;;;;;;4.25;79.23;99478.50;5006227;28;20061;-79
2021/12/07 13:22:01;;;;;;;13.35;2.38;;;;;;;4.25;79.49;99473.25;5009705;28;20053;-80
2021/12/07 13:24:30;;;;;;;12.27;2.13;;;;;;;4.22;79.39;99470.84;5020751;28;20033;-80
2021/12/07 13:26:57;;;;;;;8.52;1.65;;;;;;;4.25;79.40;99476.75;5025480;28;20407;-79
2021/12/07 13:29:25;;;;;;;16.05;2.92;;;;;;;4.28;79.51;99484.44;5027083;28;20116;-80